createdAt,value
2023-01-06T00:01:12.862Z,10.98
2023-01-06T00:03:44.352Z,10.98
2023-01-06T00:06:13.828Z,10.98
2023-01-06T00:08:42.194Z,10.98
2023-01-06T00:11:12.411Z,10.88
2023-01-06T00:13:42.653Z,10.85
2023-01-06T00:16:13.841Z,10.89
2023-01-06T00:18:42.799Z,10.89
2023-01-06T00:21:11.690Z,10.92
2023-01-06T00:23:40.357Z,10.93
2023-01-06T00:26:10.564Z,10.89
2023-01-06T00:28:39.700Z,10.88
2023-01-06T00:31:10.934Z,10.89
2023-01-06T00:33:41.933Z,10.88
2023-01-06T00:36:12.421Z,10.84
2023-01-06T00:38:41.558Z,10.83
2023-01-06T00:41:26.056Z,10.82
2023-01-06T00:43:54.372Z,10.80
2023-01-06T00:46:26.882Z,10.78
2023-01-06T00:49:04.762Z,10.74
2023-01-06T00:51:36.092Z,10.75
2023-01-06T00:54:04.827Z,10.77
2023-01-06T00:56:33.096Z,10.72
2023-01-06T00:59:03.763Z,10.68
2023-01-06T01:01:33.820Z,10.73
2023-01-06T01:04:02.477Z,10.65
2023-01-06T01:06:30.824Z,10.69
2023-01-06T01:09:01.606Z,10.66
2023-01-06T01:11:47.151Z,10.70
2023-01-06T01:14:17.662Z,10.71
2023-01-06T01:16:47.679Z,10.75
2023-01-06T01:19:16.293Z,10.78
2023-01-06T01:21:44.592Z,10.79
2023-01-06T01:24:12.854Z,10.83
2023-01-06T01:26:42.020Z,10.89
2023-01-06T01:29:12.423Z,10.86
2023-01-06T01:31:41.515Z,10.87
2023-01-06T01:34:12.842Z,10.88
2023-01-06T01:36:41.644Z,10.88
2023-01-06T01:39:10.598Z,10.90
2023-01-06T01:41:39.195Z,10.92
2023-01-06T01:44:41.153Z,10.93
2023-01-06T01:47:10.349Z,10.87
2023-01-06T01:49:42.350Z,10.90
2023-01-06T01:52:11.961Z,10.89
2023-01-06T01:54:41.696Z,10.89
2023-01-06T01:57:13.304Z,10.94
2023-01-06T01:59:43.234Z,10.96
2023-01-06T02:02:15.493Z,10.94
2023-01-06T02:04:50.183Z,10.96
2023-01-06T02:07:21.685Z,10.92
2023-01-06T02:09:56.062Z,10.96
2023-01-06T02:12:24.443Z,10.95
2023-01-06T02:14:52.677Z,10.99
2023-01-06T02:17:48.974Z,10.98
2023-01-06T02:20:41.138Z,10.95
2023-01-06T02:23:52.352Z,10.89
2023-01-06T02:26:59.384Z,10.89
2023-01-06T02:30:06.787Z,10.89
2023-01-06T02:33:01.600Z,10.86
2023-01-06T02:35:53.140Z,10.89
2023-01-06T02:38:33.746Z,10.92
2023-01-06T02:41:12.986Z,10.90
2023-01-06T02:43:53.473Z,10.86
2023-01-06T02:46:30.280Z,10.84
2023-01-06T02:49:11.477Z,10.84
2023-01-06T02:51:47.889Z,10.81
2023-01-06T02:54:26.508Z,10.85
2023-01-06T02:57:01.472Z,10.88
2023-01-06T02:59:35.230Z,10.88
2023-01-06T03:02:05.849Z,10.88
2023-01-06T03:04:40.872Z,10.88
2023-01-06T03:07:10.540Z,10.85
2023-01-06T03:09:40.600Z,10.80
2023-01-06T03:12:15.602Z,10.75
2023-01-06T03:14:48.264Z,10.73
2023-01-06T03:17:16.680Z,10.75
2023-01-06T03:19:46.679Z,10.70
2023-01-06T03:22:17.740Z,10.69
2023-01-06T03:24:46.747Z,10.71
2023-01-06T03:27:17.915Z,10.78
2023-01-06T03:29:47.110Z,10.78
2023-01-06T03:32:23.122Z,10.69
2023-01-06T03:35:10.682Z,10.71
2023-01-06T03:37:46.299Z,10.65
2023-01-06T03:40:28.655Z,10.66
2023-01-06T03:43:13.176Z,10.69
2023-01-06T03:45:57.659Z,10.70
2023-01-06T03:48:44.817Z,10.74
2023-01-06T03:51:29.304Z,10.75
2023-01-06T03:54:02.855Z,10.79
2023-01-06T03:56:36.677Z,10.78
2023-01-06T03:59:10.704Z,10.78
2023-01-06T04:01:43.358Z,10.82
2023-01-06T04:04:12.799Z,10.81
2023-01-06T04:06:42.512Z,10.73
2023-01-06T04:09:11.477Z,10.71
2023-01-06T04:11:57.223Z,10.69
2023-01-06T04:14:25.596Z,10.72
2023-01-06T04:16:54.587Z,10.78
2023-01-06T04:19:23.687Z,10.80
2023-01-06T04:21:53.343Z,10.75
2023-01-06T04:24:21.758Z,10.79
2023-01-06T04:26:50.009Z,10.78
2023-01-06T04:29:18.797Z,10.77
2023-01-06T04:31:47.367Z,10.77
2023-01-06T04:34:15.657Z,10.77
2023-01-06T04:36:43.930Z,10.79
2023-01-06T04:39:14.193Z,10.82
2023-01-06T04:41:42.388Z,10.82
2023-01-06T04:44:10.632Z,10.82
2023-01-06T04:46:38.923Z,10.86
2023-01-06T04:49:07.246Z,10.85
2023-01-06T04:51:35.638Z,10.81
2023-01-06T04:54:03.853Z,10.85
2023-01-06T04:56:33.912Z,10.80
2023-01-06T04:59:02.235Z,10.85
2023-01-06T05:01:30.757Z,10.81
2023-01-06T05:03:59.286Z,10.83
2023-01-06T05:06:27.537Z,10.85
2023-01-06T05:08:55.784Z,10.86
2023-01-06T05:11:25.995Z,10.85
2023-01-06T05:13:56.103Z,10.84
2023-01-06T05:16:26.262Z,10.84
2023-01-06T05:18:54.980Z,10.84
2023-01-06T05:21:24.796Z,10.86
2023-01-06T05:23:54.443Z,10.86
2023-01-06T05:26:24.245Z,10.82
2023-01-06T05:28:52.789Z,10.82
2023-01-06T05:31:22.650Z,10.85
2023-01-06T05:33:51.034Z,10.89
2023-01-06T05:36:20.253Z,10.87
2023-01-06T05:38:53.279Z,10.87
2023-01-06T05:41:21.567Z,10.87
2023-01-06T05:43:49.971Z,10.90
2023-01-06T05:46:18.264Z,10.90
2023-01-06T05:48:47.883Z,10.89
2023-01-06T05:51:17.835Z,10.93
2023-01-06T05:53:47.714Z,10.98
2023-01-06T05:56:17.934Z,10.94
2023-01-06T05:58:47.405Z,11.02
2023-01-06T06:01:20.271Z,11.00
2023-01-06T06:03:50.785Z,11.03
2023-01-06T06:06:20.526Z,11.04
2023-01-06T06:08:49.130Z,10.98
2023-01-06T06:11:18.984Z,10.99
2023-01-06T06:13:49.368Z,11.00
2023-01-06T06:16:19.479Z,11.01
2023-01-06T06:18:52.618Z,11.00
2023-01-06T06:21:22.915Z,11.00
2023-01-06T06:23:53.709Z,10.99
2023-01-06T06:26:22.883Z,11.01
2023-01-06T06:28:51.278Z,11.01
2023-01-06T06:31:22.519Z,11.02
2023-01-06T06:33:53.308Z,10.97
2023-01-06T06:36:21.885Z,10.95
2023-01-06T06:38:51.804Z,10.94
2023-01-06T06:41:21.104Z,10.87
2023-01-06T06:43:50.353Z,10.80
2023-01-06T06:46:19.478Z,10.74
2023-01-06T06:48:47.757Z,10.67
2023-01-06T06:51:19.760Z,10.64
2023-01-06T06:53:48.573Z,10.67
2023-01-06T06:56:18.007Z,10.66
2023-01-06T06:58:46.743Z,10.68
2023-01-06T07:01:17.066Z,10.65
2023-01-06T07:03:45.644Z,10.62
2023-01-06T07:06:15.871Z,10.57
2023-01-06T07:08:45.975Z,10.54
2023-01-06T07:11:14.577Z,10.49
2023-01-06T07:13:43.065Z,10.51
2023-01-06T07:16:11.738Z,10.41
2023-01-06T07:18:40.481Z,10.41
2023-01-06T07:21:09.168Z,10.43
2023-01-06T07:23:37.509Z,10.45
2023-01-06T07:26:08.013Z,10.44
2023-01-06T07:28:36.429Z,10.41
2023-01-06T07:31:05.251Z,10.44
2023-01-06T07:33:33.470Z,10.41
2023-01-06T07:36:01.752Z,10.38
2023-01-06T07:38:30.039Z,10.33
2023-01-06T07:41:00.630Z,10.29
2023-01-06T07:43:30.562Z,10.25
2023-01-06T07:45:59.001Z,10.22
2023-01-06T07:48:27.327Z,10.22
2023-01-06T07:50:55.625Z,10.21
2023-01-06T07:53:23.953Z,10.19
2023-01-06T07:55:53.593Z,10.21
2023-01-06T07:58:23.983Z,10.23
2023-01-06T08:00:53.916Z,10.25
2023-01-06T08:03:22.270Z,10.28
2023-01-06T08:05:50.847Z,10.27
2023-01-06T08:08:19.110Z,10.28
2023-01-06T08:10:47.404Z,10.26
2023-01-06T08:13:15.725Z,10.29
2023-01-06T08:15:43.966Z,10.33
2023-01-06T08:18:13.593Z,10.35
2023-01-06T08:20:41.936Z,10.34
2023-01-06T08:23:10.273Z,10.30
2023-01-06T08:25:38.587Z,10.25
2023-01-06T08:28:07.282Z,10.19
2023-01-06T08:30:39.964Z,10.08
2023-01-06T08:33:08.229Z,10.08
2023-01-06T08:35:37.948Z,10.14
2023-01-06T08:38:07.425Z,10.15
2023-01-06T08:40:35.648Z,10.20
2023-01-06T08:43:03.925Z,10.29
2023-01-06T08:45:32.385Z,10.48
2023-01-06T08:48:00.677Z,10.53
2023-01-06T08:50:29.033Z,10.56
2023-01-06T08:52:58.651Z,10.59
2023-01-06T08:55:27.029Z,10.60
2023-01-06T08:57:55.381Z,10.64
2023-01-06T09:00:23.898Z,10.71
2023-01-06T09:02:52.237Z,10.79
2023-01-06T09:05:20.497Z,10.81
2023-01-06T09:07:50.676Z,10.89
2023-01-06T09:10:20.891Z,10.98
2023-01-06T09:12:49.676Z,11.03
2023-01-06T09:15:18.501Z,11.04
2023-01-06T09:17:46.838Z,11.15
2023-01-06T09:20:15.093Z,11.28
2023-01-06T09:22:43.316Z,11.40
2023-01-06T09:25:11.682Z,11.32
2023-01-06T09:27:41.288Z,11.16
2023-01-06T09:30:10.696Z,11.10
2023-01-06T09:32:38.934Z,11.04
2023-01-06T09:35:09.205Z,11.02
2023-01-06T09:37:37.485Z,10.97
2023-01-06T09:40:08.179Z,11.01
2023-01-06T09:42:52.875Z,11.27
2023-01-06T09:45:25.913Z,11.47
2023-01-06T09:47:58.900Z,11.52
2023-01-06T09:50:35.626Z,11.39
2023-01-06T09:53:09.310Z,11.44
2023-01-06T09:55:41.759Z,11.67
2023-01-06T09:58:15.089Z,11.72
2023-01-06T10:00:45.133Z,11.66
2023-01-06T10:03:15.583Z,11.56
2023-01-06T10:05:53.636Z,11.51
2023-01-06T10:08:28.570Z,11.55
2023-01-06T10:11:11.429Z,11.57
2023-01-06T10:14:01.973Z,11.45
2023-01-06T10:16:44.055Z,11.51
2023-01-06T10:19:24.173Z,11.55
2023-01-06T10:22:05.938Z,11.49
2023-01-06T10:24:47.301Z,11.60
2023-01-06T10:27:23.175Z,11.60
2023-01-06T10:29:55.455Z,11.61
2023-01-06T10:32:26.196Z,11.64
2023-01-06T10:34:54.762Z,11.68
2023-01-06T10:37:26.203Z,11.64
2023-01-06T10:40:04.564Z,11.69
2023-01-06T10:43:02.554Z,11.67
2023-01-06T10:45:35.193Z,11.61
2023-01-06T10:48:06.620Z,11.56
2023-01-06T10:50:36.149Z,11.52
2023-01-06T10:53:06.706Z,11.47
2023-01-06T10:55:41.803Z,11.54
2023-01-06T10:58:22.613Z,11.60
2023-01-06T11:01:01.016Z,11.60
2023-01-06T11:03:34.760Z,11.71
2023-01-06T11:06:07.163Z,11.84
2023-01-06T11:08:36.629Z,11.79
2023-01-06T11:11:26.916Z,11.77
2023-01-06T11:13:57.793Z,11.79
2023-01-06T11:16:33.684Z,11.66
2023-01-06T11:19:06.657Z,11.72
2023-01-06T11:21:43.528Z,11.72
2023-01-06T11:24:20.530Z,11.81
2023-01-06T11:26:53.817Z,11.97
2023-01-06T11:29:30.432Z,11.99
2023-01-06T11:32:04.697Z,12.01
2023-01-06T11:34:34.448Z,12.12
2023-01-06T11:37:02.980Z,12.08
2023-01-06T11:39:34.372Z,12.05
2023-01-06T11:42:12.090Z,12.06
2023-01-06T11:44:42.677Z,12.07
2023-01-06T11:47:17.114Z,12.06
2023-01-06T11:49:50.794Z,12.10
2023-01-06T11:52:23.431Z,12.20
2023-01-06T11:55:00.184Z,12.06
2023-01-06T11:57:35.806Z,11.99
2023-01-06T12:00:20.239Z,11.89
2023-01-06T12:02:55.364Z,11.71
2023-01-06T12:05:35.142Z,11.57
2023-01-06T12:08:07.996Z,11.59
2023-01-06T12:10:38.039Z,11.70
2023-01-06T12:13:07.743Z,11.78
2023-01-06T12:15:36.873Z,11.92
2023-01-06T12:18:13.937Z,11.94
2023-01-06T12:20:45.843Z,12.03
2023-01-06T12:23:18.620Z,12.23
2023-01-06T12:25:49.070Z,12.29
2023-01-06T12:28:20.265Z,12.30
2023-01-06T12:30:54.833Z,12.22
2023-01-06T12:33:28.072Z,12.47
2023-01-06T12:36:00.799Z,12.58
2023-01-06T12:38:42.253Z,12.36
2023-01-06T12:41:15.608Z,12.41
2023-01-06T12:43:48.221Z,12.46
2023-01-06T12:46:21.316Z,12.41
2023-01-06T12:48:55.611Z,12.23
2023-01-06T12:51:29.525Z,12.17
2023-01-06T12:54:03.482Z,12.18
2023-01-06T12:56:53.616Z,12.07
2023-01-06T12:59:34.320Z,12.12
2023-01-06T13:02:13.455Z,12.05
2023-01-06T13:05:00.048Z,12.07
2023-01-06T13:07:40.835Z,12.21
2023-01-06T13:10:19.660Z,12.12
2023-01-06T13:13:11.963Z,12.00
2023-01-06T13:15:42.720Z,11.92
2023-01-06T13:18:19.686Z,11.83
2023-01-06T13:20:53.115Z,11.85
2023-01-06T13:23:45.217Z,11.79
2023-01-06T13:26:43.689Z,11.79
2023-01-06T13:29:22.749Z,12.04
2023-01-06T13:32:23.788Z,12.14
2023-01-06T13:35:21.868Z,12.35
2023-01-06T13:38:01.869Z,12.46
2023-01-06T13:40:34.645Z,12.56
2023-01-06T13:43:07.420Z,12.51
2023-01-06T13:45:40.044Z,12.55
2023-01-06T13:48:11.649Z,12.43
2023-01-06T13:50:42.862Z,12.34
2023-01-06T13:53:18.500Z,12.26
2023-01-06T13:55:47.071Z,12.27
2023-01-06T13:58:38.240Z,12.16
2023-01-06T14:01:09.368Z,12.20
2023-01-06T14:03:38.776Z,12.13
2023-01-06T14:06:12.268Z,12.06
2023-01-06T14:08:50.857Z,12.03
2023-01-06T14:11:30.843Z,12.00
2023-01-06T14:14:00.440Z,11.86
2023-01-06T14:16:43.027Z,11.84
2023-01-06T14:19:17.684Z,11.76
2023-01-06T14:21:46.913Z,11.71
2023-01-06T14:24:31.402Z,11.66
2023-01-06T14:27:02.719Z,11.61
2023-01-06T14:30:06.244Z,11.56
2023-01-06T14:33:11.979Z,11.55
2023-01-06T14:35:44.284Z,11.55
2023-01-06T14:38:25.235Z,11.48
2023-01-06T14:41:00.124Z,11.48
2023-01-06T14:43:35.784Z,11.55
2023-01-06T14:46:10.926Z,11.48
2023-01-06T14:48:45.475Z,11.49
2023-01-06T14:51:17.809Z,11.45
2023-01-06T14:53:51.675Z,11.47
2023-01-06T14:56:23.794Z,11.44
2023-01-06T14:58:52.007Z,11.38
2023-01-06T15:01:25.384Z,11.34
2023-01-06T15:03:59.709Z,11.32
2023-01-06T15:06:29.300Z,11.34
2023-01-06T15:09:12.304Z,11.34
2023-01-06T15:11:43.693Z,11.38
2023-01-06T15:14:28.690Z,11.32
2023-01-06T15:16:58.342Z,11.34
2023-01-06T15:19:27.171Z,11.34
2023-01-06T15:21:55.997Z,11.34
2023-01-06T15:24:26.444Z,11.33
2023-01-06T15:26:58.158Z,11.29
2023-01-06T15:29:26.888Z,11.27
2023-01-06T15:31:56.795Z,11.31
2023-01-06T15:34:31.195Z,11.30
2023-01-06T15:37:01.987Z,11.33
2023-01-06T15:39:32.414Z,11.32
2023-01-06T15:42:08.020Z,11.31
2023-01-06T15:44:39.014Z,11.30
2023-01-06T15:47:20.533Z,11.32
2023-01-06T15:49:53.798Z,11.37
2023-01-06T15:52:26.859Z,11.32
2023-01-06T15:54:57.756Z,11.33
2023-01-06T15:57:29.256Z,11.30
2023-01-06T16:00:00.797Z,11.30
2023-01-06T16:02:31.918Z,11.28
2023-01-06T16:05:01.091Z,11.30
2023-01-06T16:07:36.577Z,11.31
2023-01-06T16:10:07.973Z,11.33
2023-01-06T16:12:37.720Z,11.32
2023-01-06T16:15:41.249Z,11.32
2023-01-06T16:18:10.175Z,11.32
2023-01-06T16:20:38.495Z,11.30
2023-01-06T16:23:08.313Z,11.28
2023-01-06T16:25:36.656Z,11.29
2023-01-06T16:28:07.358Z,11.27
2023-01-06T16:30:36.632Z,11.27
2023-01-06T16:33:06.999Z,11.25
2023-01-06T16:35:35.990Z,11.22
2023-01-06T16:38:04.267Z,11.17
2023-01-06T16:40:33.405Z,11.14
2023-01-06T16:43:02.815Z,11.08
2023-01-06T16:45:39.009Z,11.04
2023-01-06T16:48:08.465Z,11.05
2023-01-06T16:50:42.015Z,11.04
2023-01-06T16:53:16.253Z,11.04
2023-01-06T16:55:45.722Z,11.03
2023-01-06T16:58:18.159Z,11.00
2023-01-06T17:00:52.238Z,10.99
2023-01-06T17:03:22.413Z,10.98
2023-01-06T17:05:51.067Z,10.99
2023-01-06T17:08:25.697Z,10.97
2023-01-06T17:10:53.986Z,10.97
2023-01-06T17:13:39.731Z,10.99
2023-01-06T17:16:17.113Z,10.98
2023-01-06T17:18:51.277Z,10.95
2023-01-06T17:21:22.107Z,10.95
2023-01-06T17:23:52.809Z,10.95
2023-01-06T17:26:24.159Z,10.93
2023-01-06T17:28:54.587Z,10.92
2023-01-06T17:31:31.768Z,10.93
2023-01-06T17:34:10.923Z,10.92
2023-01-06T17:36:40.520Z,10.90
2023-01-06T17:39:16.895Z,10.94
2023-01-06T17:41:45.251Z,10.97
2023-01-06T17:44:16.719Z,10.95
2023-01-06T17:46:47.098Z,10.95
2023-01-06T17:49:35.495Z,10.95
2023-01-06T17:52:16.814Z,10.94
2023-01-06T17:55:11.133Z,10.97
2023-01-06T17:57:41.731Z,10.97
2023-01-06T18:00:19.524Z,11.00
2023-01-06T18:02:53.411Z,10.98
2023-01-06T18:05:59.175Z,10.99
2023-01-06T18:08:28.413Z,10.98
2023-01-06T18:11:02.603Z,10.98
2023-01-06T18:13:36.860Z,10.99
2023-01-06T18:16:24.180Z,11.03
2023-01-06T18:18:53.966Z,11.02
2023-01-06T18:21:29.611Z,11.03
2023-01-06T18:23:57.867Z,11.02
2023-01-06T18:26:37.742Z,11.00
2023-01-06T18:29:14.658Z,10.99
2023-01-06T18:31:44.158Z,11.01
2023-01-06T18:34:28.058Z,10.99
2023-01-06T18:36:57.961Z,10.98
2023-01-06T18:39:28.833Z,10.96
2023-01-06T18:42:06.611Z,10.96
2023-01-06T18:44:35.212Z,10.93
2023-01-06T18:47:03.563Z,10.85
2023-01-06T18:49:34.747Z,10.80
2023-01-06T18:52:24.922Z,10.78
2023-01-06T18:54:55.615Z,10.78
2023-01-06T18:57:30.526Z,10.83
2023-01-06T19:00:02.295Z,10.78
2023-01-06T19:02:38.191Z,10.73
2023-01-06T19:05:12.848Z,10.70
2023-01-06T19:07:41.145Z,10.75
2023-01-06T19:10:25.142Z,10.78
2023-01-06T19:12:55.635Z,10.83
2023-01-06T19:15:25.827Z,10.82
2023-01-06T19:17:54.586Z,10.83
2023-01-06T19:20:26.863Z,10.86
2023-01-06T19:22:55.434Z,10.90
2023-01-06T19:25:31.838Z,10.96
2023-01-06T19:28:01.449Z,10.97
2023-01-06T19:30:42.321Z,11.01
2023-01-06T19:33:38.638Z,10.96
2023-01-06T19:36:38.646Z,10.92
2023-01-06T19:39:33.929Z,10.82
2023-01-06T19:42:14.825Z,10.78
2023-01-06T19:44:43.249Z,10.71
2023-01-06T19:47:18.796Z,10.69
2023-01-06T19:49:52.877Z,10.64
2023-01-06T19:52:35.800Z,10.57
2023-01-06T19:55:22.534Z,10.57
2023-01-06T19:57:53.173Z,10.53
2023-01-06T20:00:30.916Z,10.58
2023-01-06T20:03:01.907Z,10.58
2023-01-06T20:05:32.406Z,10.59
2023-01-06T20:08:02.061Z,10.66
2023-01-06T20:10:30.515Z,10.64
2023-01-06T20:12:58.822Z,10.60
2023-01-06T20:15:27.080Z,10.64
2023-01-06T20:17:55.348Z,10.63
2023-01-06T20:20:23.815Z,10.67
2023-01-06T20:22:52.211Z,10.62
2023-01-06T20:25:23.230Z,10.65
2023-01-06T20:27:51.651Z,10.65
2023-01-06T20:30:20.062Z,10.71
2023-01-06T20:32:48.604Z,10.67
2023-01-06T20:35:17.070Z,10.68
2023-01-06T20:37:45.406Z,10.70
2023-01-06T20:40:13.865Z,10.71
2023-01-06T20:42:43.530Z,10.75
2023-01-06T20:45:13.070Z,10.81
2023-01-06T20:47:41.883Z,10.87
2023-01-06T20:50:13.803Z,10.80
2023-01-06T20:52:42.265Z,10.80
2023-01-06T20:55:11.150Z,10.85
2023-01-06T20:57:39.487Z,10.85
2023-01-06T21:00:12.509Z,10.86
2023-01-06T21:02:41.043Z,10.89
2023-01-06T21:05:10.010Z,10.93
2023-01-06T21:07:38.317Z,10.93
2023-01-06T21:10:08.560Z,10.90
2023-01-06T21:12:37.135Z,10.88
2023-01-06T21:15:07.197Z,10.89
2023-01-06T21:17:36.951Z,10.88
2023-01-06T21:20:07.364Z,10.78
2023-01-06T21:22:35.724Z,10.69
2023-01-06T21:25:04.241Z,10.63
2023-01-06T21:27:34.012Z,10.62
2023-01-06T21:30:02.340Z,10.54
2023-01-06T21:32:31.286Z,10.53
2023-01-06T21:35:00.904Z,10.46
2023-01-06T21:37:29.177Z,10.48
2023-01-06T21:39:57.423Z,10.49
2023-01-06T21:42:42.817Z,10.54
2023-01-06T21:45:12.014Z,10.56
2023-01-06T21:47:40.293Z,10.52
2023-01-06T21:50:11.298Z,10.53
2023-01-06T21:52:39.775Z,10.51
2023-01-06T21:55:09.663Z,10.48
2023-01-06T21:57:38.040Z,10.57
2023-01-06T22:00:09.901Z,10.68
2023-01-06T22:02:43.725Z,10.67
2023-01-06T22:05:13.976Z,10.63
2023-01-06T22:07:46.171Z,10.57
2023-01-06T22:10:18.023Z,10.59
2023-01-06T22:12:48.078Z,10.58
2023-01-06T22:15:17.329Z,10.59
2023-01-06T22:17:45.661Z,10.56
2023-01-06T22:20:17.542Z,10.58
2023-01-06T22:22:46.600Z,10.68
2023-01-06T22:25:14.926Z,10.71
2023-01-06T22:27:43.165Z,10.71
2023-01-06T22:30:12.180Z,10.73
2023-01-06T22:32:44.159Z,10.69
2023-01-06T22:35:12.989Z,10.67
2023-01-06T22:37:43.301Z,10.67
2023-01-06T22:40:13.362Z,10.68
2023-01-06T22:42:41.920Z,10.68
2023-01-06T22:45:11.744Z,10.63
2023-01-06T22:47:40.102Z,10.63
2023-01-06T22:50:09.534Z,10.69
2023-01-06T22:52:37.775Z,10.67
2023-01-06T22:55:09.606Z,10.69
2023-01-06T22:57:37.940Z,10.67
2023-01-06T23:00:12.587Z,10.71
2023-01-06T23:02:41.123Z,10.68
2023-01-06T23:05:10.615Z,10.65
2023-01-06T23:07:39.914Z,10.67
2023-01-06T23:10:12.053Z,10.70
2023-01-06T23:12:41.800Z,10.72
2023-01-06T23:15:11.266Z,10.77
2023-01-06T23:17:39.863Z,10.81
2023-01-06T23:20:08.851Z,10.80
2023-01-06T23:22:37.290Z,10.81
2023-01-06T23:25:06.900Z,10.71
2023-01-06T23:27:38.063Z,10.68
2023-01-06T23:30:08.309Z,10.79
2023-01-06T23:32:36.625Z,10.75
2023-01-06T23:35:06.122Z,10.70
2023-01-06T23:37:34.929Z,10.59
2023-01-06T23:40:03.253Z,10.59
2023-01-06T23:42:40.495Z,10.60
2023-01-06T23:45:14.052Z,10.55
2023-01-06T23:47:42.444Z,10.54
2023-01-06T23:50:11.211Z,10.52
2023-01-06T23:52:39.501Z,10.48
2023-01-06T23:55:08.455Z,10.45
2023-01-06T23:57:36.755Z,10.40
